createdAt,value
2024-02-19T00:00:55.839Z,101003.09
2024-02-19T00:03:22.560Z,101006.13
2024-02-19T00:05:51.822Z,101003.56
2024-02-19T00:08:18.348Z,100980.47
2024-02-19T00:10:44.892Z,101009.56
2024-02-19T00:13:11.410Z,101007.91
2024-02-19T00:15:37.826Z,101008.09
2024-02-19T00:18:04.569Z,100978.22
2024-02-19T00:20:30.992Z,101016.50
2024-02-19T00:22:57.371Z,101007.75
2024-02-19T00:25:23.936Z,100986.19
2024-02-19T00:27:50.444Z,101004.72
2024-02-19T00:30:17.482Z,101005.19
2024-02-19T00:32:44.014Z,100997.03
2024-02-19T00:35:10.469Z,100995.97
2024-02-19T00:37:36.888Z,101026.56
2024-02-19T00:40:05.627Z,101027.47
2024-02-19T00:42:32.039Z,101034.72
2024-02-19T00:44:59.169Z,101039.63
2024-02-19T00:47:25.687Z,101051.59
2024-02-19T00:49:52.342Z,101036.50
2024-02-19T00:52:19.041Z,101037.09
2024-02-19T00:54:45.835Z,101047.00
2024-02-19T00:57:12.314Z,101044.56
2024-02-19T00:59:38.704Z,101042.59
2024-02-19T01:02:05.189Z,101050.19
2024-02-19T01:04:31.686Z,101032.50
2024-02-19T01:06:58.206Z,101045.50
2024-02-19T01:09:24.585Z,101049.25
2024-02-19T01:11:50.994Z,101066.44
2024-02-19T01:14:17.405Z,101056.84
2024-02-19T01:16:44.224Z,101054.13
2024-02-19T01:19:10.755Z,101061.91
2024-02-19T01:21:37.908Z,101067.31
2024-02-19T01:24:04.379Z,101067.31
2024-02-19T01:26:31.416Z,101076.94
2024-02-19T01:28:57.827Z,101063.63
2024-02-19T01:31:24.397Z,101057.78
2024-02-19T01:33:50.862Z,101082.53
2024-02-19T01:36:17.352Z,101084.94
2024-02-19T01:38:43.777Z,101080.22
2024-02-19T01:41:10.165Z,101083.81
2024-02-19T01:43:37.675Z,101088.25
2024-02-19T01:46:04.361Z,101070.25
2024-02-19T01:48:30.906Z,101053.31
2024-02-19T01:50:57.734Z,101110.66
2024-02-19T01:53:25.032Z,101090.41
2024-02-19T01:55:52.525Z,101081.91
2024-02-19T01:58:19.356Z,101116.19
2024-02-19T02:00:49.352Z,101119.91
2024-02-19T02:03:21.768Z,101128.22
2024-02-19T02:05:49.021Z,101127.19
2024-02-19T02:08:15.962Z,101130.31
2024-02-19T02:10:42.360Z,101131.56
2024-02-19T02:13:09.766Z,101103.47
2024-02-19T02:15:36.587Z,101140.91
2024-02-19T02:18:03.230Z,101118.22
2024-02-19T02:20:32.286Z,101119.97
2024-02-19T02:22:59.305Z,101144.19
2024-02-19T02:25:25.831Z,101139.16
2024-02-19T02:27:52.309Z,101149.38
2024-02-19T02:30:18.730Z,101140.25
2024-02-19T02:32:45.238Z,101151.38
2024-02-19T02:35:11.722Z,101148.38
2024-02-19T02:37:38.097Z,101147.81
2024-02-19T02:40:04.917Z,101119.28
2024-02-19T02:42:31.616Z,101155.56
2024-02-19T02:44:58.134Z,101150.78
2024-02-19T02:47:24.516Z,101153.47
2024-02-19T02:49:50.916Z,101107.59
2024-02-19T02:52:17.400Z,101161.34
2024-02-19T02:54:43.889Z,101149.47
2024-02-19T02:57:10.267Z,101165.81
2024-02-19T02:59:36.721Z,101130.94
2024-02-19T03:02:03.235Z,101163.41
2024-02-19T03:04:29.816Z,101138.91
2024-02-19T03:06:56.366Z,101138.00
2024-02-19T03:09:22.779Z,101177.50
2024-02-19T03:11:49.168Z,101179.63
2024-02-19T03:14:17.674Z,101192.19
2024-02-19T03:16:44.046Z,101188.63
2024-02-19T03:19:14.384Z,101192.91
2024-02-19T03:21:43.980Z,101166.22
2024-02-19T03:24:10.656Z,101182.84
2024-02-19T03:26:41.260Z,101212.94
2024-02-19T03:29:15.765Z,101216.00
2024-02-19T03:31:43.854Z,101187.97
2024-02-19T03:34:11.327Z,101217.16
2024-02-19T03:36:38.138Z,101230.53
2024-02-19T03:39:05.681Z,101236.16
2024-02-19T03:41:32.479Z,101237.47
2024-02-19T03:43:59.813Z,101184.63
2024-02-19T03:46:26.895Z,101252.03
2024-02-19T03:48:55.109Z,101246.50
2024-02-19T03:51:21.548Z,101256.47
2024-02-19T03:53:47.910Z,101269.66
2024-02-19T03:56:14.329Z,101279.53
2024-02-19T03:58:41.330Z,101274.22
2024-02-19T04:01:08.674Z,101278.75
2024-02-19T04:03:35.516Z,101288.22
2024-02-19T04:06:02.503Z,101294.56
2024-02-19T04:08:28.898Z,101304.78
2024-02-19T04:10:55.422Z,101309.63
2024-02-19T04:13:21.859Z,101320.91
2024-02-19T04:15:48.328Z,101319.59
2024-02-19T04:18:14.817Z,101330.44
2024-02-19T04:20:41.298Z,101330.09
2024-02-19T04:23:07.675Z,101331.50
2024-02-19T04:25:34.208Z,101297.78
2024-02-19T04:28:00.775Z,101300.69
2024-02-19T04:30:27.233Z,101336.50
2024-02-19T04:32:54.126Z,101306.34
2024-02-19T04:35:20.644Z,101333.06
2024-02-19T04:37:47.098Z,101331.44
2024-02-19T04:40:14.850Z,101347.63
2024-02-19T04:42:41.455Z,101339.63
2024-02-19T04:45:08.144Z,101337.91
2024-02-19T04:47:34.603Z,101343.03
2024-02-19T04:50:01.343Z,101348.81
2024-02-19T04:52:27.932Z,101327.47
2024-02-19T04:54:54.452Z,101343.59
2024-02-19T04:57:21.271Z,101312.38
2024-02-19T04:59:47.720Z,101353.69
2024-02-19T05:02:14.129Z,101354.69
2024-02-19T05:04:41.256Z,101351.06
2024-02-19T05:07:07.797Z,101356.25
2024-02-19T05:09:34.542Z,101368.09
2024-02-19T05:12:00.988Z,101371.75
2024-02-19T05:14:27.387Z,101342.69
2024-02-19T05:16:56.020Z,101371.41
2024-02-19T05:19:22.801Z,101380.50
2024-02-19T05:21:49.804Z,101373.94
2024-02-19T05:24:18.534Z,101357.06
2024-02-19T05:26:45.180Z,101356.50
2024-02-19T05:29:12.067Z,101395.47
2024-02-19T05:31:39.710Z,101393.44
2024-02-19T05:34:07.614Z,101397.97
2024-02-19T05:36:34.651Z,101394.69
2024-02-19T05:39:01.627Z,101365.59
2024-02-19T05:41:28.389Z,101394.31
2024-02-19T05:43:55.081Z,101396.09
2024-02-19T05:46:21.602Z,101386.69
2024-02-19T05:48:49.677Z,101399.03
2024-02-19T05:51:16.398Z,101404.75
2024-02-19T05:53:42.911Z,101407.09
2024-02-19T05:56:10.320Z,101403.78
2024-02-19T05:58:43.440Z,101405.47
2024-02-19T06:01:10.193Z,101416.50
2024-02-19T06:03:36.989Z,101409.69
2024-02-19T06:06:04.350Z,101424.78
2024-02-19T06:08:31.131Z,101399.16
2024-02-19T06:10:58.735Z,101415.56
2024-02-19T06:13:26.129Z,101401.72
2024-02-19T06:15:52.864Z,101425.72
2024-02-19T06:18:19.536Z,101405.34
2024-02-19T06:20:48.422Z,101429.41
2024-02-19T06:23:15.536Z,101424.66
2024-02-19T06:25:43.507Z,101417.03
2024-02-19T06:28:10.263Z,101448.31
2024-02-19T06:30:36.805Z,101445.00
2024-02-19T06:33:03.701Z,101429.13
2024-02-19T06:35:30.279Z,101439.22
2024-02-19T06:37:57.063Z,101447.78
2024-02-19T06:40:23.706Z,101437.22
2024-02-19T06:42:53.644Z,101461.41
2024-02-19T06:45:21.196Z,101466.47
2024-02-19T06:47:47.621Z,101442.97
2024-02-19T06:50:14.101Z,101445.72
2024-02-19T06:52:44.408Z,101470.13
2024-02-19T06:55:10.934Z,101469.72
2024-02-19T06:57:37.402Z,101465.28
2024-02-19T07:00:04.171Z,101483.69
2024-02-19T07:02:30.544Z,101482.59
2024-02-19T07:04:57.287Z,101484.97
2024-02-19T07:07:23.849Z,101476.72
2024-02-19T07:09:52.309Z,101451.41
2024-02-19T07:12:18.910Z,101452.63
2024-02-19T07:14:45.294Z,101476.16
2024-02-19T07:17:11.679Z,101488.50
2024-02-19T07:19:38.139Z,101495.94
2024-02-19T07:22:04.958Z,101491.78
2024-02-19T07:24:33.908Z,101500.19
2024-02-19T07:27:00.378Z,101504.59
2024-02-19T07:29:27.316Z,101497.47
2024-02-19T07:31:54.040Z,101513.66
2024-02-19T07:34:20.663Z,101494.66
2024-02-19T07:36:47.381Z,101512.88
2024-02-19T07:39:15.031Z,101515.34
2024-02-19T07:41:41.418Z,101516.91
2024-02-19T07:44:07.971Z,101516.53
2024-02-19T07:46:34.639Z,101504.19
2024-02-19T07:49:01.276Z,101524.19
2024-02-19T07:51:27.777Z,101470.97
2024-02-19T07:53:54.144Z,101523.41
2024-02-19T07:56:20.704Z,101517.19
2024-02-19T07:58:47.109Z,101518.97
2024-02-19T08:01:13.687Z,101510.78
2024-02-19T08:03:40.234Z,101526.59
2024-02-19T08:06:08.345Z,101524.34
2024-02-19T08:08:34.851Z,101515.09
2024-02-19T08:11:01.370Z,101527.69
2024-02-19T08:13:28.008Z,101519.41
2024-02-19T08:15:54.584Z,101530.38
2024-02-19T08:18:21.908Z,101504.13
2024-02-19T08:20:49.211Z,101536.63
2024-02-19T08:23:15.647Z,101539.09
2024-02-19T08:25:42.016Z,101531.16
2024-02-19T08:28:08.416Z,101534.81
2024-02-19T08:30:34.840Z,101543.59
2024-02-19T08:33:01.377Z,101548.44
2024-02-19T08:35:28.516Z,101549.03
2024-02-19T08:37:56.859Z,101524.94
2024-02-19T08:40:23.330Z,101530.56
2024-02-19T08:42:51.226Z,101533.53
2024-02-19T08:45:20.342Z,101497.81
2024-02-19T08:47:48.736Z,101546.59
2024-02-19T08:50:15.460Z,101548.66
2024-02-19T08:52:42.109Z,101541.31
2024-02-19T08:55:08.695Z,101536.53
2024-02-19T08:57:35.185Z,101501.66
2024-02-19T09:00:01.672Z,101531.59
2024-02-19T09:02:28.356Z,101522.16
2024-02-19T09:04:54.847Z,101523.50
2024-02-19T09:07:21.440Z,101531.59
2024-02-19T09:09:47.928Z,101533.56
2024-02-19T09:12:14.672Z,101520.09
2024-02-19T09:14:41.172Z,101529.47
2024-02-19T09:17:08.350Z,101515.63
2024-02-19T09:19:35.179Z,101528.78
2024-02-19T09:22:03.380Z,101509.69
2024-02-19T09:24:30.272Z,101498.34
2024-02-19T09:26:56.692Z,101520.34
2024-02-19T09:29:23.093Z,101499.44
2024-02-19T09:31:49.581Z,101521.81
2024-02-19T09:34:16.115Z,101477.50
2024-02-19T09:36:46.971Z,101515.91
2024-02-19T09:39:13.529Z,101526.97
2024-02-19T09:41:40.654Z,101525.53
2024-02-19T09:44:08.573Z,101529.59
2024-02-19T09:46:36.508Z,101541.00
2024-02-19T09:49:05.358Z,101532.25
2024-02-19T09:51:40.877Z,101535.06
2024-02-19T09:54:07.835Z,101529.25
2024-02-19T09:56:35.948Z,101541.00
2024-02-19T09:59:02.916Z,101548.88
2024-02-19T10:01:29.502Z,101546.16
2024-02-19T10:03:57.780Z,101546.97
2024-02-19T10:06:33.699Z,101539.00
2024-02-19T10:09:01.707Z,101521.78
2024-02-19T10:11:28.341Z,101542.50
2024-02-19T10:13:54.773Z,101547.44
2024-02-19T10:16:21.299Z,101547.78
2024-02-19T10:18:47.974Z,101544.28
2024-02-19T10:21:14.403Z,101541.22
2024-02-19T10:23:40.889Z,101527.47
2024-02-19T10:26:08.690Z,101541.94
2024-02-19T10:28:36.530Z,101548.38
2024-02-19T10:31:03.089Z,101523.06
2024-02-19T10:33:29.602Z,101556.50
2024-02-19T10:35:56.423Z,101544.19
2024-02-19T10:38:23.319Z,101545.00
2024-02-19T10:40:49.885Z,101546.56
2024-02-19T10:43:19.018Z,101533.28
2024-02-19T10:45:48.357Z,101542.53
2024-02-19T10:48:15.732Z,101522.28
2024-02-19T10:50:42.174Z,101519.16
2024-02-19T10:53:08.671Z,101549.50
2024-02-19T10:55:49.656Z,101541.41
2024-02-19T10:58:26.217Z,101537.81
2024-02-19T11:00:54.543Z,101527.94
2024-02-19T11:03:22.074Z,101531.81
2024-02-19T11:05:48.590Z,101543.44
2024-02-19T11:08:22.973Z,101541.53
2024-02-19T11:10:51.020Z,101513.88
2024-02-19T11:13:23.209Z,101535.13
2024-02-19T11:15:49.909Z,101533.53
2024-02-19T11:18:18.276Z,101503.09
2024-02-19T11:20:45.933Z,101534.19
2024-02-19T11:23:12.981Z,101533.44
2024-02-19T11:25:40.307Z,101531.22
2024-02-19T11:28:07.550Z,101532.56
2024-02-19T11:30:34.010Z,101528.03
2024-02-19T11:33:04.464Z,101530.34
2024-02-19T11:35:34.519Z,101507.97
2024-02-19T11:38:03.921Z,101534.34
2024-02-19T11:40:33.552Z,101522.22
2024-02-19T11:43:02.114Z,101526.44
2024-02-19T11:45:30.195Z,101500.72
2024-02-19T11:47:57.826Z,101499.97
2024-02-19T11:50:31.228Z,101471.69
2024-02-19T11:53:01.528Z,101505.00
2024-02-19T11:55:31.653Z,101472.16
2024-02-19T11:58:01.798Z,101490.75
2024-02-19T12:00:32.688Z,101480.81
2024-02-19T12:03:00.051Z,101482.28
2024-02-19T12:05:27.703Z,101455.53
2024-02-19T12:07:54.440Z,101468.97
2024-02-19T12:10:20.905Z,101459.72
2024-02-19T12:12:47.952Z,101466.66
2024-02-19T12:15:20.382Z,101459.25
2024-02-19T12:17:49.581Z,101466.97
2024-02-19T12:20:16.594Z,101469.22
2024-02-19T12:22:43.346Z,101439.34
2024-02-19T12:25:12.619Z,101466.81
2024-02-19T12:27:39.152Z,101440.88
2024-02-19T12:30:06.568Z,101464.47
2024-02-19T12:32:33.439Z,101472.00
2024-02-19T12:35:00.587Z,101445.66
2024-02-19T12:37:29.943Z,101460.94
2024-02-19T12:39:56.889Z,101424.34
2024-02-19T12:42:23.388Z,101470.75
2024-02-19T12:44:49.745Z,101460.19
2024-02-19T12:47:16.217Z,101443.22
2024-02-19T12:49:42.809Z,101470.75
2024-02-19T12:52:11.101Z,101445.66
2024-02-19T12:54:37.575Z,101464.69
2024-02-19T12:57:06.889Z,101452.84
2024-02-19T12:59:33.279Z,101456.16
2024-02-19T13:01:59.817Z,101457.53
2024-02-19T13:04:27.576Z,101453.47
2024-02-19T13:06:57.016Z,101466.16
2024-02-19T13:09:23.662Z,101458.88
2024-02-19T13:11:50.146Z,101437.91
2024-02-19T13:14:16.542Z,101404.00
2024-02-19T13:16:43.503Z,101450.75
2024-02-19T13:19:11.166Z,101455.34
2024-02-19T13:21:37.689Z,101441.41
2024-02-19T13:24:04.365Z,101448.66
2024-02-19T13:26:30.751Z,101446.09
2024-02-19T13:28:57.249Z,101431.13
2024-02-19T13:31:23.979Z,101416.56
2024-02-19T13:33:50.524Z,101439.72
2024-02-19T13:36:17.700Z,101413.84
2024-02-19T13:38:44.472Z,101415.06
2024-02-19T13:41:13.833Z,101446.22
2024-02-19T13:43:41.959Z,101436.94
2024-02-19T13:46:08.851Z,101435.75
2024-02-19T13:48:35.888Z,101433.78
2024-02-19T13:51:02.676Z,101434.16
2024-02-19T13:53:30.556Z,101424.97
2024-02-19T13:56:00.646Z,101399.22
2024-02-19T13:58:28.828Z,101428.13
2024-02-19T14:00:57.666Z,101404.53
2024-02-19T14:03:25.113Z,101426.19
2024-02-19T14:05:51.993Z,101425.44
2024-02-19T14:08:20.273Z,101398.16
2024-02-19T14:10:48.421Z,101429.66
2024-02-19T14:13:16.493Z,101395.94
2024-02-19T14:15:42.999Z,101409.53
2024-02-19T14:18:09.480Z,101405.31
2024-02-19T14:20:35.972Z,101411.38
2024-02-19T14:23:03.472Z,101411.22
2024-02-19T14:25:30.888Z,101402.06
2024-02-19T14:27:57.920Z,101407.78
2024-02-19T14:30:24.316Z,101376.59
2024-02-19T14:32:50.773Z,101400.00
2024-02-19T14:35:17.466Z,101385.63
2024-02-19T14:37:45.025Z,101385.97
2024-02-19T14:40:14.850Z,101401.19
2024-02-19T14:42:42.453Z,101394.63
2024-02-19T14:45:09.362Z,101383.56
2024-02-19T14:47:38.199Z,101398.72
2024-02-19T14:50:06.137Z,101406.03
2024-02-19T14:52:34.151Z,101398.50
2024-02-19T14:55:02.193Z,101377.03
2024-02-19T14:57:30.048Z,101395.78
2024-02-19T14:59:56.427Z,101408.63
2024-02-19T15:02:23.256Z,101399.84
2024-02-19T15:04:49.902Z,101406.97
2024-02-19T15:07:16.493Z,101384.88
2024-02-19T15:09:43.352Z,101396.69
2024-02-19T15:12:10.376Z,101406.19
2024-02-19T15:14:36.810Z,101409.69
2024-02-19T15:17:04.250Z,101412.41
2024-02-19T15:19:30.702Z,101406.66
2024-02-19T15:21:57.196Z,101383.50
2024-02-19T15:24:23.575Z,101408.75
2024-02-19T15:26:50.405Z,101413.28
2024-02-19T15:29:18.203Z,101407.88
2024-02-19T15:31:44.616Z,101385.91
2024-02-19T15:34:11.056Z,101382.88
2024-02-19T15:36:37.557Z,101377.59
2024-02-19T15:39:04.009Z,101413.28
2024-02-19T15:41:32.656Z,101413.91
2024-02-19T15:43:59.944Z,101386.94
2024-02-19T15:46:26.641Z,101414.50
2024-02-19T15:48:53.117Z,101407.34
2024-02-19T15:51:19.550Z,101382.69
2024-02-19T15:53:46.012Z,101407.50
2024-02-19T15:56:12.416Z,101415.03
2024-02-19T15:58:40.147Z,101409.31
2024-02-19T16:01:07.696Z,101407.50
2024-02-19T16:03:34.262Z,101404.16
2024-02-19T16:06:01.291Z,101404.47
2024-02-19T16:08:33.734Z,101382.06
2024-02-19T16:11:04.468Z,101411.41
2024-02-19T16:13:32.407Z,101400.50
2024-02-19T16:15:59.751Z,101386.13
2024-02-19T16:18:27.267Z,101419.50
2024-02-19T16:20:53.740Z,101415.72
2024-02-19T16:23:20.145Z,101408.63
2024-02-19T16:25:46.653Z,101418.00
2024-02-19T16:28:13.472Z,101409.50
2024-02-19T16:30:39.856Z,101391.38
2024-02-19T16:33:06.392Z,101415.59
2024-02-19T16:35:32.900Z,101419.22
2024-02-19T16:37:59.344Z,101413.63
2024-02-19T16:40:26.553Z,101414.53
2024-02-19T16:42:54.037Z,101417.88
2024-02-19T16:45:20.623Z,101413.47
2024-02-19T16:47:47.058Z,101420.72
2024-02-19T16:50:13.491Z,101426.19
2024-02-19T16:52:39.922Z,101413.34
2024-02-19T16:55:09.519Z,101365.09
2024-02-19T16:57:36.178Z,101382.34
2024-02-19T17:00:04.268Z,101410.47
2024-02-19T17:02:31.037Z,101423.44
2024-02-19T17:04:57.512Z,101416.34
2024-02-19T17:07:24.396Z,101418.63
2024-02-19T17:09:51.116Z,101419.53
2024-02-19T17:12:17.593Z,101417.09
2024-02-19T17:14:45.857Z,101421.94
2024-02-19T17:17:12.791Z,101420.47
2024-02-19T17:19:39.328Z,101426.47
2024-02-19T17:22:06.044Z,101418.50
2024-02-19T17:24:37.776Z,101426.19
2024-02-19T17:27:04.687Z,101422.81
2024-02-19T17:29:31.158Z,101429.75
2024-02-19T17:31:57.870Z,101431.84
2024-02-19T17:34:28.082Z,101419.50
2024-02-19T17:36:54.751Z,101427.66
2024-02-19T17:39:24.784Z,101423.44
2024-02-19T17:41:51.182Z,101404.22
2024-02-19T17:44:17.674Z,101424.00
2024-02-19T17:46:44.230Z,101427.94
2024-02-19T17:49:14.358Z,101405.56
2024-02-19T17:51:41.271Z,101432.47
2024-02-19T17:54:10.803Z,101406.16
2024-02-19T17:56:40.743Z,101433.66
2024-02-19T17:59:12.364Z,101435.50
2024-02-19T18:01:39.772Z,101429.75
2024-02-19T18:04:06.494Z,101430.50
2024-02-19T18:06:35.183Z,101402.50
2024-02-19T18:09:03.947Z,101432.13
2024-02-19T18:11:30.678Z,101424.53
2024-02-19T18:13:57.566Z,101427.97
2024-02-19T18:16:24.003Z,101403.44
2024-02-19T18:18:50.568Z,101410.38
2024-02-19T18:21:21.426Z,101434.63
2024-02-19T18:23:48.489Z,101407.16
2024-02-19T18:26:15.016Z,101438.03
2024-02-19T18:28:41.424Z,101402.31
2024-02-19T18:31:11.777Z,101435.84
2024-02-19T18:33:38.522Z,101430.44
2024-02-19T18:36:06.045Z,101437.38
2024-02-19T18:38:34.488Z,101430.84
2024-02-19T18:41:03.462Z,101424.19
2024-02-19T18:43:30.441Z,101431.31
2024-02-19T18:45:56.956Z,101434.81
2024-02-19T18:48:24.288Z,101421.63
2024-02-19T18:50:51.304Z,101430.31
2024-02-19T18:53:17.792Z,101405.81
2024-02-19T18:55:45.140Z,101431.50
2024-02-19T18:58:11.574Z,101407.22
2024-02-19T19:00:38.063Z,101428.47
2024-02-19T19:03:04.585Z,101438.44
2024-02-19T19:05:31.603Z,101427.84
2024-02-19T19:07:59.002Z,101437.56
2024-02-19T19:10:25.786Z,101429.28
2024-02-19T19:12:52.364Z,101435.34
2024-02-19T19:15:18.845Z,101408.72
2024-02-19T19:17:46.168Z,101429.03
2024-02-19T19:20:12.917Z,101431.25
2024-02-19T19:22:39.993Z,101431.69
2024-02-19T19:25:07.999Z,101425.72
2024-02-19T19:27:34.876Z,101431.25
2024-02-19T19:30:01.395Z,101422.53
2024-02-19T19:32:30.067Z,101423.66
2024-02-19T19:34:57.122Z,101425.38
2024-02-19T19:37:25.550Z,101440.78
2024-02-19T19:39:52.342Z,101433.81
2024-02-19T19:42:19.929Z,101413.72
2024-02-19T19:44:46.376Z,101446.09
2024-02-19T19:47:12.808Z,101436.44
2024-02-19T19:49:39.284Z,101438.50
2024-02-19T19:52:05.840Z,101448.31
2024-02-19T19:54:32.253Z,101448.41
2024-02-19T19:56:58.693Z,101448.50
2024-02-19T19:59:27.288Z,101422.78
2024-02-19T20:01:53.868Z,101443.69
2024-02-19T20:04:20.852Z,101442.94
2024-02-19T20:06:47.572Z,101443.09
2024-02-19T20:09:14.178Z,101401.53
2024-02-19T20:11:40.696Z,101448.31
2024-02-19T20:14:07.117Z,101450.13
2024-02-19T20:16:36.546Z,101437.31
2024-02-19T20:19:03.017Z,101439.34
2024-02-19T20:21:29.434Z,101442.97
2024-02-19T20:23:56.097Z,101440.91
2024-02-19T20:26:22.547Z,101445.09
2024-02-19T20:28:49.632Z,101426.03
2024-02-19T20:31:16.054Z,101441.50
2024-02-19T20:33:42.616Z,101443.22
2024-02-19T20:36:09.305Z,101448.25
2024-02-19T20:38:35.753Z,101452.59
2024-02-19T20:41:03.938Z,101452.16
2024-02-19T20:43:30.438Z,101441.16
2024-02-19T20:45:56.986Z,101450.16
2024-02-19T20:48:24.293Z,101446.72
2024-02-19T20:50:50.863Z,101444.16
2024-02-19T20:53:17.281Z,101442.06
2024-02-19T20:55:43.755Z,101449.00
2024-02-19T20:58:10.457Z,101453.53
2024-02-19T21:00:36.984Z,101449.50
2024-02-19T21:03:03.997Z,101452.06
2024-02-19T21:05:30.429Z,101443.81
2024-02-19T21:07:56.996Z,101442.63
2024-02-19T21:10:23.716Z,101450.31
2024-02-19T21:12:51.227Z,101442.97
2024-02-19T21:15:17.840Z,101398.41
2024-02-19T21:17:44.240Z,101447.13
2024-02-19T21:20:12.129Z,101450.03
2024-02-19T21:22:39.326Z,101462.25
2024-02-19T21:25:06.400Z,101454.22
2024-02-19T21:27:32.913Z,101461.66
2024-02-19T21:29:59.349Z,101463.78
2024-02-19T21:32:30.040Z,101449.28
2024-02-19T21:34:58.222Z,101455.22
2024-02-19T21:37:27.440Z,101434.09
2024-02-19T21:39:53.945Z,101453.31
2024-02-19T21:42:25.669Z,101458.66
2024-02-19T21:44:52.500Z,101459.91
2024-02-19T21:47:19.066Z,101422.97
2024-02-19T21:49:46.368Z,101429.84
2024-02-19T21:52:13.113Z,101448.84
2024-02-19T21:54:39.809Z,101454.72
2024-02-19T21:57:06.238Z,101452.47
2024-02-19T21:59:32.667Z,101453.63
2024-02-19T22:01:59.676Z,101447.84
2024-02-19T22:04:26.336Z,101447.13
2024-02-19T22:06:52.811Z,101455.63
2024-02-19T22:09:19.207Z,101458.84
2024-02-19T22:11:45.738Z,101462.91
2024-02-19T22:14:12.895Z,101464.31
2024-02-19T22:16:39.372Z,101471.19
2024-02-19T22:19:05.808Z,101467.78
2024-02-19T22:21:32.294Z,101430.28
2024-02-19T22:23:58.740Z,101460.84
2024-02-19T22:26:25.129Z,101460.53
2024-02-19T22:28:52.345Z,101460.84
2024-02-19T22:31:18.734Z,101462.34
2024-02-19T22:33:45.242Z,101468.53
2024-02-19T22:36:11.721Z,101475.81
2024-02-19T22:38:38.983Z,101471.81
2024-02-19T22:41:05.372Z,101464.47
2024-02-19T22:43:31.782Z,101446.72
2024-02-19T22:45:58.721Z,101469.53
2024-02-19T22:48:25.608Z,101473.16
2024-02-19T22:50:52.050Z,101444.25
2024-02-19T22:53:19.413Z,101486.47
2024-02-19T22:55:45.979Z,101452.66
2024-02-19T22:58:17.768Z,101490.34
2024-02-19T23:00:50.204Z,101457.28
2024-02-19T23:03:16.863Z,101480.91
2024-02-19T23:05:44.086Z,101472.88
2024-02-19T23:08:10.888Z,101478.41
2024-02-19T23:10:37.293Z,101473.03
2024-02-19T23:13:04.667Z,101484.94
2024-02-19T23:15:31.542Z,101476.22
2024-02-19T23:17:58.512Z,101481.34
2024-02-19T23:20:25.026Z,101451.28
2024-02-19T23:22:51.541Z,101473.78
2024-02-19T23:25:18.401Z,101462.53
2024-02-19T23:27:44.860Z,101463.94
2024-02-19T23:30:12.591Z,101498.31
2024-02-19T23:32:39.183Z,101510.69
2024-02-19T23:35:07.653Z,101514.41
2024-02-19T23:37:34.226Z,101493.41
2024-02-19T23:40:01.118Z,101501.19
2024-02-19T23:42:27.812Z,101478.91
2024-02-19T23:44:54.331Z,101508.19
2024-02-19T23:47:20.989Z,101489.09
2024-02-19T23:49:47.782Z,101515.50
2024-02-19T23:52:14.637Z,101511.41
2024-02-19T23:54:41.184Z,101509.78
2024-02-19T23:57:08.589Z,101488.50
2024-02-19T23:59:35.426Z,101470.66
